Esquimalt, Canada
Current Conditions -  °F | °C
As of 7:00 PM on Saturday 25 Oct 2014 (Local Time) from CYWH Reporting Station
Light Rain Light Rain  
Wind Chill: 52°   Ceiling: 1400
Heat Index: 52°   Visibility: 5mi
Dew Point: 50°   Wind: 7mph
Humidity: 94%   Direction: 360°N
Pressure: 29.27"   Gusts: NA
Location:  48.43°N, 123.41°W
Report Text: CYWH 260200Z 36006KT 5SM -RA BR FEW005 BKN014 BKN022 OVC060 11/10 A2927 RMK SF2SC3SC2SC1 SLP910
Loading
Personal Weather Stations






























Interactive Weather Map
Tropical Storm Tracking
New forecast layout! Learn more

10-Day Weather Forecast

Advertisements
Track Severe Weather on mobile